sensor_id;sensor_type;location;lat;lon;timestamp;P1;durP1;ratioP1;P2;durP2;ratioP2
68214;SDS011;55036;52.138;5.236;2022-07-15T00:00:46;7.05;;;1.83;;
68214;SDS011;55036;52.138;5.236;2022-07-15T00:03:13;8.70;;;1.75;;
68214;SDS011;55036;52.138;5.236;2022-07-15T00:05:40;6.65;;;1.70;;
68214;SDS011;55036;52.138;5.236;2022-07-15T00:08:07;5.65;;;1.90;;
68214;SDS011;55036;52.138;5.236;2022-07-15T00:10:34;7.15;;;1.60;;
68214;SDS011;55036;52.138;5.236;2022-07-15T00:13:01;4.20;;;2.05;;
68214;SDS011;55036;52.138;5.236;2022-07-15T00:15:31;8.65;;;1.60;;
68214;SDS011;55036;52.138;5.236;2022-07-15T00:17:58;4.88;;;2.08;;
68214;SDS011;55036;52.138;5.236;2022-07-15T00:20:30;3.63;;;1.60;;
68214;SDS011;55036;52.138;5.236;2022-07-15T00:23:01;6.70;;;1.80;;
68214;SDS011;55036;52.138;5.236;2022-07-15T00:25:29;3.45;;;1.83;;
68214;SDS011;55036;52.138;5.236;2022-07-15T00:27:57;6.55;;;1.67;;
68214;SDS011;55036;52.138;5.236;2022-07-15T00:30:30;5.25;;;1.65;;
68214;SDS011;55036;52.138;5.236;2022-07-15T00:33:05;6.57;;;1.98;;
68214;SDS011;55036;52.138;5.236;2022-07-15T00:35:32;7.43;;;1.77;;
68214;SDS011;55036;52.138;5.236;2022-07-15T00:38:01;5.97;;;1.70;;
68214;SDS011;55036;52.138;5.236;2022-07-15T00:40:43;5.35;;;1.63;;
68214;SDS011;55036;52.138;5.236;2022-07-15T00:43:12;7.65;;;1.88;;
68214;SDS011;55036;52.138;5.236;2022-07-15T00:45:42;5.70;;;1.45;;
68214;SDS011;55036;52.138;5.236;2022-07-15T00:48:09;3.80;;;1.65;;
68214;SDS011;55036;52.138;5.236;2022-07-15T00:50:44;8.05;;;1.88;;
68214;SDS011;55036;52.138;5.236;2022-07-15T00:53:18;4.88;;;1.80;;
68214;SDS011;55036;52.138;5.236;2022-07-15T00:55:47;6.13;;;1.40;;
68214;SDS011;55036;52.138;5.236;2022-07-15T00:58:18;5.55;;;1.80;;
68214;SDS011;55036;52.138;5.236;2022-07-15T01:00:50;3.20;;;1.60;;
68214;SDS011;55036;52.138;5.236;2022-07-15T01:03:17;4.90;;;2.03;;
68214;SDS011;55036;52.138;5.236;2022-07-15T01:05:45;6.78;;;1.65;;
68214;SDS011;55036;52.138;5.236;2022-07-15T01:08:13;6.78;;;1.95;;
68214;SDS011;55036;52.138;5.236;2022-07-15T01:10:46;6.70;;;1.70;;
68214;SDS011;55036;52.138;5.236;2022-07-15T01:13:15;3.58;;;1.80;;
68214;SDS011;55036;52.138;5.236;2022-07-15T01:15:43;7.15;;;1.95;;
68214;SDS011;55036;52.138;5.236;2022-07-15T01:18:10;4.35;;;1.83;;
68214;SDS011;55036;52.138;5.236;2022-07-15T01:20:40;3.20;;;1.90;;
68214;SDS011;55036;52.138;5.236;2022-07-15T01:23:12;4.75;;;1.60;;
68214;SDS011;55036;52.138;5.236;2022-07-15T01:25:39;5.97;;;1.80;;
68214;SDS011;55036;52.138;5.236;2022-07-15T01:28:08;5.50;;;2.10;;
68214;SDS011;55036;52.138;5.236;2022-07-15T01:30:36;6.13;;;1.60;;
68214;SDS011;55036;52.138;5.236;2022-07-15T01:33:03;3.55;;;1.88;;
68214;SDS011;55036;52.138;5.236;2022-07-15T01:35:30;3.22;;;1.30;;
68214;SDS011;55036;52.138;5.236;2022-07-15T01:37:57;6.85;;;1.63;;
68214;SDS011;55036;52.138;5.236;2022-07-15T01:40:23;6.47;;;2.22;;
68214;SDS011;55036;52.138;5.236;2022-07-15T01:42:50;5.20;;;1.60;;
68214;SDS011;55036;52.138;5.236;2022-07-15T01:45:17;4.05;;;1.50;;
68214;SDS011;55036;52.138;5.236;2022-07-15T01:47:45;7.80;;;1.58;;
68214;SDS011;55036;52.138;5.236;2022-07-15T01:50:12;4.38;;;1.40;;
68214;SDS011;55036;52.138;5.236;2022-07-15T01:52:40;2.78;;;1.83;;
68214;SDS011;55036;52.138;5.236;2022-07-15T01:55:07;5.03;;;1.60;;
68214;SDS011;55036;52.138;5.236;2022-07-15T01:57:36;5.65;;;2.13;;
68214;SDS011;55036;52.138;5.236;2022-07-15T02:00:06;4.22;;;1.90;;
68214;SDS011;55036;52.138;5.236;2022-07-15T02:02:36;4.05;;;1.30;;
68214;SDS011;55036;52.138;5.236;2022-07-15T02:05:03;4.75;;;1.27;;
68214;SDS011;55036;52.138;5.236;2022-07-15T02:07:30;5.68;;;1.55;;
68214;SDS011;55036;52.138;5.236;2022-07-15T02:09:57;6.53;;;1.60;;
68214;SDS011;55036;52.138;5.236;2022-07-15T02:12:24;6.50;;;1.60;;
68214;SDS011;55036;52.138;5.236;2022-07-15T02:14:51;6.20;;;1.60;;
68214;SDS011;55036;52.138;5.236;2022-07-15T02:17:18;4.45;;;1.42;;
68214;SDS011;55036;52.138;5.236;2022-07-15T02:19:45;4.15;;;1.30;;
68214;SDS011;55036;52.138;5.236;2022-07-15T02:22:12;6.22;;;1.65;;
68214;SDS011;55036;52.138;5.236;2022-07-15T02:24:38;4.75;;;1.42;;
68214;SDS011;55036;52.138;5.236;2022-07-15T02:27:05;6.30;;;1.48;;
68214;SDS011;55036;52.138;5.236;2022-07-15T02:29:32;5.07;;;1.55;;
68214;SDS011;55036;52.138;5.236;2022-07-15T02:31:59;7.63;;;1.50;;
68214;SDS011;55036;52.138;5.236;2022-07-15T02:34:26;5.55;;;2.15;;
68214;SDS011;55036;52.138;5.236;2022-07-15T02:36:52;6.03;;;1.35;;
68214;SDS011;55036;52.138;5.236;2022-07-15T02:39:19;5.53;;;1.65;;
68214;SDS011;55036;52.138;5.236;2022-07-15T02:41:46;6.57;;;1.58;;
68214;SDS011;55036;52.138;5.236;2022-07-15T02:44:13;5.68;;;1.50;;
68214;SDS011;55036;52.138;5.236;2022-07-15T02:46:40;3.78;;;1.10;;
68214;SDS011;55036;52.138;5.236;2022-07-15T02:49:07;6.10;;;1.40;;
68214;SDS011;55036;52.138;5.236;2022-07-15T02:51:35;6.20;;;1.20;;
68214;SDS011;55036;52.138;5.236;2022-07-15T02:54:02;4.25;;;1.73;;
68214;SDS011;55036;52.138;5.236;2022-07-15T02:56:29;4.03;;;1.40;;
68214;SDS011;55036;52.138;5.236;2022-07-15T02:58:56;4.00;;;1.45;;
68214;SDS011;55036;52.138;5.236;2022-07-15T03:01:22;4.00;;;1.90;;
68214;SDS011;55036;52.138;5.236;2022-07-15T03:03:49;2.90;;;1.38;;
68214;SDS011;55036;52.138;5.236;2022-07-15T03:06:16;3.35;;;1.40;;
68214;SDS011;55036;52.138;5.236;2022-07-15T03:08:43;6.22;;;1.60;;
68214;SDS011;55036;52.138;5.236;2022-07-15T03:11:10;3.20;;;1.10;;
68214;SDS011;55036;52.138;5.236;2022-07-15T03:13:38;4.90;;;1.30;;
68214;SDS011;55036;52.138;5.236;2022-07-15T03:16:05;4.78;;;1.60;;
68214;SDS011;55036;52.138;5.236;2022-07-15T03:18:32;7.85;;;1.88;;
68214;SDS011;55036;52.138;5.236;2022-07-15T03:20:59;4.88;;;1.50;;
68214;SDS011;55036;52.138;5.236;2022-07-15T03:23:26;2.85;;;1.25;;
68214;SDS011;55036;52.138;5.236;2022-07-15T03:25:52;3.47;;;1.38;;
68214;SDS011;55036;52.138;5.236;2022-07-15T03:28:19;6.55;;;1.45;;
68214;SDS011;55036;52.138;5.236;2022-07-15T03:30:46;9.25;;;2.38;;
68214;SDS011;55036;52.138;5.236;2022-07-15T03:33:13;4.10;;;1.17;;
68214;SDS011;55036;52.138;5.236;2022-07-15T03:35:40;5.25;;;1.52;;
68214;SDS011;55036;52.138;5.236;2022-07-15T03:38:09;3.97;;;1.70;;
68214;SDS011;55036;52.138;5.236;2022-07-15T03:40:36;4.70;;;1.80;;
68214;SDS011;55036;52.138;5.236;2022-07-15T03:43:02;6.28;;;1.80;;
68214;SDS011;55036;52.138;5.236;2022-07-15T03:45:29;4.80;;;1.70;;
68214;SDS011;55036;52.138;5.236;2022-07-15T03:47:56;4.63;;;1.83;;
68214;SDS011;55036;52.138;5.236;2022-07-15T03:50:23;5.03;;;1.50;;
68214;SDS011;55036;52.138;5.236;2022-07-15T03:52:49;5.18;;;1.30;;
68214;SDS011;55036;52.138;5.236;2022-07-15T03:55:16;6.47;;;1.80;;
68214;SDS011;55036;52.138;5.236;2022-07-15T03:57:43;5.47;;;1.67;;
68214;SDS011;55036;52.138;5.236;2022-07-15T04:00:10;4.07;;;1.50;;
68214;SDS011;55036;52.138;5.236;2022-07-15T04:02:38;2.70;;;1.60;;
68214;SDS011;55036;52.138;5.236;2022-07-15T04:05:12;6.72;;;1.48;;
68214;SDS011;55036;52.138;5.236;2022-07-15T04:07:39;6.55;;;1.60;;
68214;SDS011;55036;52.138;5.236;2022-07-15T04:10:06;3.40;;;1.88;;
68214;SDS011;55036;52.138;5.236;2022-07-15T04:12:33;4.70;;;1.75;;
68214;SDS011;55036;52.138;5.236;2022-07-15T04:15:00;3.55;;;1.20;;
68214;SDS011;55036;52.138;5.236;2022-07-15T04:17:26;3.88;;;1.63;;
68214;SDS011;55036;52.138;5.236;2022-07-15T04:19:53;4.55;;;1.73;;
68214;SDS011;55036;52.138;5.236;2022-07-15T04:22:20;9.52;;;1.90;;
68214;SDS011;55036;52.138;5.236;2022-07-15T04:24:47;3.33;;;1.70;;
68214;SDS011;55036;52.138;5.236;2022-07-15T04:27:13;5.30;;;1.75;;
68214;SDS011;55036;52.138;5.236;2022-07-15T04:29:40;2.90;;;1.35;;
68214;SDS011;55036;52.138;5.236;2022-07-15T04:32:07;4.70;;;1.63;;
68214;SDS011;55036;52.138;5.236;2022-07-15T04:34:34;3.55;;;1.52;;
68214;SDS011;55036;52.138;5.236;2022-07-15T04:37:01;7.40;;;1.83;;
68214;SDS011;55036;52.138;5.236;2022-07-15T04:39:28;5.75;;;1.77;;
68214;SDS011;55036;52.138;5.236;2022-07-15T04:41:55;6.32;;;1.70;;
68214;SDS011;55036;52.138;5.236;2022-07-15T04:44:21;6.30;;;2.08;;
68214;SDS011;55036;52.138;5.236;2022-07-15T04:46:48;4.65;;;1.75;;
68214;SDS011;55036;52.138;5.236;2022-07-15T04:49:15;5.32;;;1.77;;
68214;SDS011;55036;52.138;5.236;2022-07-15T04:52:00;5.07;;;1.70;;
68214;SDS011;55036;52.138;5.236;2022-07-15T04:54:27;6.25;;;1.90;;
68214;SDS011;55036;52.138;5.236;2022-07-15T04:56:54;6.53;;;1.83;;
68214;SDS011;55036;52.138;5.236;2022-07-15T04:59:20;6.82;;;1.70;;
68214;SDS011;55036;52.138;5.236;2022-07-15T05:01:47;5.10;;;1.67;;
68214;SDS011;55036;52.138;5.236;2022-07-15T05:04:14;6.90;;;2.13;;
68214;SDS011;55036;52.138;5.236;2022-07-15T05:06:41;6.03;;;2.30;;
68214;SDS011;55036;52.138;5.236;2022-07-15T05:09:07;4.72;;;1.70;;
68214;SDS011;55036;52.138;5.236;2022-07-15T05:11:34;4.55;;;1.50;;
68214;SDS011;55036;52.138;5.236;2022-07-15T05:14:01;4.10;;;1.40;;
68214;SDS011;55036;52.138;5.236;2022-07-15T05:16:27;4.88;;;1.92;;
68214;SDS011;55036;52.138;5.236;2022-07-15T05:18:54;6.05;;;1.92;;
68214;SDS011;55036;52.138;5.236;2022-07-15T05:21:21;2.90;;;1.33;;
68214;SDS011;55036;52.138;5.236;2022-07-15T05:23:51;5.35;;;1.40;;
68214;SDS011;55036;52.138;5.236;2022-07-15T05:26:37;6.78;;;1.88;;
68214;SDS011;55036;52.138;5.236;2022-07-15T05:29:10;6.60;;;1.50;;
68214;SDS011;55036;52.138;5.236;2022-07-15T05:31:37;7.68;;;1.90;;
68214;SDS011;55036;52.138;5.236;2022-07-15T05:34:04;8.55;;;1.40;;
68214;SDS011;55036;52.138;5.236;2022-07-15T05:36:31;5.65;;;1.40;;
68214;SDS011;55036;52.138;5.236;2022-07-15T05:38:57;4.90;;;1.40;;
68214;SDS011;55036;52.138;5.236;2022-07-15T05:41:24;4.15;;;1.30;;
68214;SDS011;55036;52.138;5.236;2022-07-15T05:43:51;4.60;;;1.30;;
68214;SDS011;55036;52.138;5.236;2022-07-15T05:46:18;8.35;;;2.10;;
68214;SDS011;55036;52.138;5.236;2022-07-15T05:48:45;10.23;;;1.48;;
68214;SDS011;55036;52.138;5.236;2022-07-15T05:51:11;3.78;;;1.25;;
68214;SDS011;55036;52.138;5.236;2022-07-15T05:53:39;5.03;;;1.23;;
68214;SDS011;55036;52.138;5.236;2022-07-15T05:56:05;2.72;;;1.10;;
68214;SDS011;55036;52.138;5.236;2022-07-15T05:58:33;7.15;;;1.40;;
68214;SDS011;55036;52.138;5.236;2022-07-15T06:01:00;7.65;;;1.33;;
68214;SDS011;55036;52.138;5.236;2022-07-15T06:03:27;5.60;;;1.33;;
68214;SDS011;55036;52.138;5.236;2022-07-15T06:05:53;5.25;;;1.52;;
68214;SDS011;55036;52.138;5.236;2022-07-15T06:08:20;5.53;;;1.10;;
68214;SDS011;55036;52.138;5.236;2022-07-15T06:10:47;5.60;;;1.40;;
68214;SDS011;55036;52.138;5.236;2022-07-15T06:13:14;8.15;;;1.35;;
68214;SDS011;55036;52.138;5.236;2022-07-15T06:15:41;6.60;;;1.23;;
68214;SDS011;55036;52.138;5.236;2022-07-15T06:18:08;3.95;;;1.08;;
68214;SDS011;55036;52.138;5.236;2022-07-15T06:20:35;11.20;;;1.80;;
68214;SDS011;55036;52.138;5.236;2022-07-15T06:23:02;4.57;;;1.73;;
68214;SDS011;55036;52.138;5.236;2022-07-15T06:25:29;6.28;;;1.05;;
68214;SDS011;55036;52.138;5.236;2022-07-15T06:27:56;6.60;;;1.20;;
68214;SDS011;55036;52.138;5.236;2022-07-15T06:30:23;9.57;;;1.40;;
68214;SDS011;55036;52.138;5.236;2022-07-15T06:32:49;7.50;;;1.88;;
68214;SDS011;55036;52.138;5.236;2022-07-15T06:35:16;5.75;;;1.25;;
68214;SDS011;55036;52.138;5.236;2022-07-15T06:37:43;4.15;;;1.45;;
68214;SDS011;55036;52.138;5.236;2022-07-15T06:40:10;5.18;;;1.23;;
68214;SDS011;55036;52.138;5.236;2022-07-15T06:42:37;4.32;;;1.08;;
68214;SDS011;55036;52.138;5.236;2022-07-15T06:45:04;7.05;;;1.50;;
68214;SDS011;55036;52.138;5.236;2022-07-15T06:47:32;4.95;;;1.30;;
68214;SDS011;55036;52.138;5.236;2022-07-15T06:50:01;4.65;;;1.13;;
68214;SDS011;55036;52.138;5.236;2022-07-15T06:52:29;6.93;;;1.15;;
68214;SDS011;55036;52.138;5.236;2022-07-15T06:54:55;7.90;;;1.30;;
68214;SDS011;55036;52.138;5.236;2022-07-15T06:57:22;8.55;;;1.40;;
68214;SDS011;55036;52.138;5.236;2022-07-15T06:59:49;5.85;;;1.13;;
68214;SDS011;55036;52.138;5.236;2022-07-15T07:02:16;4.45;;;1.35;;
68214;SDS011;55036;52.138;5.236;2022-07-15T07:04:43;7.28;;;1.42;;
68214;SDS011;55036;52.138;5.236;2022-07-15T07:07:11;4.13;;;1.17;;
68214;SDS011;55036;52.138;5.236;2022-07-15T07:09:38;4.00;;;1.55;;
68214;SDS011;55036;52.138;5.236;2022-07-15T07:12:05;4.63;;;1.30;;
68214;SDS011;55036;52.138;5.236;2022-07-15T07:14:32;3.92;;;1.05;;
68214;SDS011;55036;52.138;5.236;2022-07-15T07:16:59;2.55;;;0.90;;
68214;SDS011;55036;52.138;5.236;2022-07-15T07:19:25;3.83;;;1.00;;
68214;SDS011;55036;52.138;5.236;2022-07-15T07:21:52;4.82;;;1.30;;
68214;SDS011;55036;52.138;5.236;2022-07-15T07:24:19;7.22;;;1.30;;
68214;SDS011;55036;52.138;5.236;2022-07-15T07:26:46;4.75;;;1.17;;
68214;SDS011;55036;52.138;5.236;2022-07-15T07:29:12;7.38;;;1.17;;
68214;SDS011;55036;52.138;5.236;2022-07-15T07:31:42;5.70;;;1.20;;
68214;SDS011;55036;52.138;5.236;2022-07-15T07:34:10;4.13;;;1.13;;
68214;SDS011;55036;52.138;5.236;2022-07-15T07:36:36;3.65;;;1.05;;
68214;SDS011;55036;52.138;5.236;2022-07-15T07:39:03;3.10;;;0.93;;
68214;SDS011;55036;52.138;5.236;2022-07-15T07:41:30;8.20;;;1.42;;
68214;SDS011;55036;52.138;5.236;2022-07-15T07:43:57;3.88;;;0.70;;
68214;SDS011;55036;52.138;5.236;2022-07-15T07:46:24;3.97;;;0.95;;
68214;SDS011;55036;52.138;5.236;2022-07-15T07:48:51;6.88;;;1.10;;
68214;SDS011;55036;52.138;5.236;2022-07-15T07:51:38;4.18;;;0.90;;
68214;SDS011;55036;52.138;5.236;2022-07-15T07:54:07;6.03;;;1.27;;
68214;SDS011;55036;52.138;5.236;2022-07-15T07:56:34;4.93;;;1.17;;
68214;SDS011;55036;52.138;5.236;2022-07-15T07:59:02;4.97;;;1.27;;
68214;SDS011;55036;52.138;5.236;2022-07-15T08:01:29;5.78;;;1.02;;
68214;SDS011;55036;52.138;5.236;2022-07-15T08:03:56;4.15;;;1.17;;
68214;SDS011;55036;52.138;5.236;2022-07-15T08:06:22;4.85;;;0.88;;
68214;SDS011;55036;52.138;5.236;2022-07-15T08:08:49;2.92;;;0.88;;
68214;SDS011;55036;52.138;5.236;2022-07-15T08:11:18;4.38;;;1.00;;
68214;SDS011;55036;52.138;5.236;2022-07-15T08:13:46;5.15;;;0.80;;
68214;SDS011;55036;52.138;5.236;2022-07-15T08:16:13;6.63;;;1.05;;
68214;SDS011;55036;52.138;5.236;2022-07-15T08:18:40;6.63;;;1.35;;
68214;SDS011;55036;52.138;5.236;2022-07-15T08:21:08;5.20;;;0.90;;
68214;SDS011;55036;52.138;5.236;2022-07-15T08:23:34;1.75;;;0.90;;
68214;SDS011;55036;52.138;5.236;2022-07-15T08:26:02;6.10;;;0.93;;
68214;SDS011;55036;52.138;5.236;2022-07-15T08:28:30;3.72;;;0.93;;
68214;SDS011;55036;52.138;5.236;2022-07-15T08:31:17;1.73;;;0.50;;
68214;SDS011;55036;52.138;5.236;2022-07-15T08:33:46;2.97;;;0.90;;
68214;SDS011;55036;52.138;5.236;2022-07-15T08:36:12;3.30;;;0.70;;
68214;SDS011;55036;52.138;5.236;2022-07-15T08:38:39;3.22;;;1.00;;
68214;SDS011;55036;52.138;5.236;2022-07-15T08:41:06;3.00;;;0.98;;
68214;SDS011;55036;52.138;5.236;2022-07-15T08:43:33;3.60;;;0.80;;
68214;SDS011;55036;52.138;5.236;2022-07-15T08:45:59;3.80;;;0.70;;
68214;SDS011;55036;52.138;5.236;2022-07-15T08:48:30;5.33;;;0.80;;
68214;SDS011;55036;52.138;5.236;2022-07-15T08:51:02;5.57;;;1.00;;
68214;SDS011;55036;52.138;5.236;2022-07-15T08:53:31;2.13;;;0.70;;
68214;SDS011;55036;52.138;5.236;2022-07-15T08:55:58;2.08;;;0.52;;
68214;SDS011;55036;52.138;5.236;2022-07-15T08:58:25;2.58;;;1.23;;
68214;SDS011;55036;52.138;5.236;2022-07-15T09:01:12;2.30;;;0.70;;
68214;SDS011;55036;52.138;5.236;2022-07-15T09:03:41;3.88;;;0.82;;
68214;SDS011;55036;52.138;5.236;2022-07-15T09:06:08;2.55;;;0.70;;
68214;SDS011;55036;52.138;5.236;2022-07-15T09:08:34;1.77;;;0.73;;
68214;SDS011;55036;52.138;5.236;2022-07-15T09:11:01;1.20;;;0.43;;
68214;SDS011;55036;52.138;5.236;2022-07-15T09:15:59;1.50;;;0.60;;
68214;SDS011;55036;52.138;5.236;2022-07-15T09:18:48;5.40;;;0.45;;
68214;SDS011;55036;52.138;5.236;2022-07-15T09:21:17;2.90;;;0.65;;
68214;SDS011;55036;52.138;5.236;2022-07-15T09:26:28;1.75;;;0.50;;
68214;SDS011;55036;52.138;5.236;2022-07-15T09:29:00;1.67;;;0.63;;
68214;SDS011;55036;52.138;5.236;2022-07-15T09:34:15;1.42;;;0.60;;
68214;SDS011;55036;52.138;5.236;2022-07-15T09:36:52;3.55;;;0.80;;
68214;SDS011;55036;52.138;5.236;2022-07-15T09:39:22;3.00;;;0.63;;
68214;SDS011;55036;52.138;5.236;2022-07-15T09:41:50;2.85;;;0.80;;
68214;SDS011;55036;52.138;5.236;2022-07-15T09:44:25;1.75;;;0.63;;
68214;SDS011;55036;52.138;5.236;2022-07-15T09:46:54;4.00;;;0.80;;
68214;SDS011;55036;52.138;5.236;2022-07-15T09:51:54;4.97;;;0.80;;
68214;SDS011;55036;52.138;5.236;2022-07-15T09:54:26;4.00;;;0.93;;
68214;SDS011;55036;52.138;5.236;2022-07-15T09:56:57;1.95;;;0.70;;
68214;SDS011;55036;52.138;5.236;2022-07-15T09:59:25;2.97;;;0.60;;
68214;SDS011;55036;52.138;5.236;2022-07-15T10:01:53;2.85;;;0.70;;
68214;SDS011;55036;52.138;5.236;2022-07-15T10:04:20;3.38;;;0.90;;
68214;SDS011;55036;52.138;5.236;2022-07-15T10:06:50;3.42;;;0.68;;
68214;SDS011;55036;52.138;5.236;2022-07-15T10:09:38;1.85;;;0.50;;
68214;SDS011;55036;52.138;5.236;2022-07-15T10:12:13;2.40;;;0.50;;
68214;SDS011;55036;52.138;5.236;2022-07-15T10:17:34;1.20;;;0.52;;
68214;SDS011;55036;52.138;5.236;2022-07-15T10:28:50;1.52;;;0.47;;
68214;SDS011;55036;52.138;5.236;2022-07-15T10:31:21;3.97;;;0.70;;
68214;SDS011;55036;52.138;5.236;2022-07-15T10:34:15;4.28;;;0.60;;
68214;SDS011;55036;52.138;5.236;2022-07-15T10:39:14;1.00;;;0.43;;
68214;SDS011;55036;52.138;5.236;2022-07-15T10:41:47;0.45;;;0.30;;
68214;SDS011;55036;52.138;5.236;2022-07-15T10:44:24;4.13;;;0.75;;
68214;SDS011;55036;52.138;5.236;2022-07-15T10:49:38;3.78;;;0.60;;
68214;SDS011;55036;52.138;5.236;2022-07-15T10:52:17;5.32;;;1.00;;
68214;SDS011;55036;52.138;5.236;2022-07-15T11:05:27;3.58;;;0.80;;
68214;SDS011;55036;52.138;5.236;2022-07-15T11:07:54;2.72;;;0.70;;
68214;SDS011;55036;52.138;5.236;2022-07-15T11:10:21;1.63;;;0.50;;
68214;SDS011;55036;52.138;5.236;2022-07-15T11:15:21;1.25;;;0.60;;
68214;SDS011;55036;52.138;5.236;2022-07-15T11:17:50;3.30;;;0.60;;
68214;SDS011;55036;52.138;5.236;2022-07-15T11:20:34;2.83;;;0.80;;
68214;SDS011;55036;52.138;5.236;2022-07-15T11:23:03;1.55;;;0.47;;
68214;SDS011;55036;52.138;5.236;2022-07-15T11:25:33;2.40;;;0.57;;
68214;SDS011;55036;52.138;5.236;2022-07-15T11:28:03;2.35;;;1.00;;
68214;SDS011;55036;52.138;5.236;2022-07-15T11:30:31;1.35;;;0.68;;
68214;SDS011;55036;52.138;5.236;2022-07-15T11:33:01;1.38;;;0.63;;
68214;SDS011;55036;52.138;5.236;2022-07-15T11:35:30;2.30;;;1.13;;
68214;SDS011;55036;52.138;5.236;2022-07-15T11:38:16;9.18;;;0.95;;
68214;SDS011;55036;52.138;5.236;2022-07-15T11:40:50;1.58;;;0.50;;
68214;SDS011;55036;52.138;5.236;2022-07-15T11:43:36;0.50;;;0.50;;
68214;SDS011;55036;52.138;5.236;2022-07-15T11:46:22;2.47;;;0.60;;
68214;SDS011;55036;52.138;5.236;2022-07-15T11:48:51;2.88;;;0.80;;
68214;SDS011;55036;52.138;5.236;2022-07-15T11:51:23;3.03;;;0.80;;
68214;SDS011;55036;52.138;5.236;2022-07-15T11:53:52;2.63;;;1.10;;
68214;SDS011;55036;52.138;5.236;2022-07-15T11:56:20;2.45;;;0.90;;
68214;SDS011;55036;52.138;5.236;2022-07-15T11:58:51;1.90;;;0.80;;
68214;SDS011;55036;52.138;5.236;2022-07-15T12:01:20;1.65;;;0.65;;
68214;SDS011;55036;52.138;5.236;2022-07-15T12:03:52;0.82;;;0.47;;
68214;SDS011;55036;52.138;5.236;2022-07-15T12:06:20;1.38;;;0.50;;
68214;SDS011;55036;52.138;5.236;2022-07-15T12:08:52;1.70;;;0.57;;
68214;SDS011;55036;52.138;5.236;2022-07-15T12:11:31;4.32;;;0.90;;
68214;SDS011;55036;52.138;5.236;2022-07-15T12:14:01;2.13;;;0.95;;
68214;SDS011;55036;52.138;5.236;2022-07-15T12:16:30;3.35;;;0.90;;
68214;SDS011;55036;52.138;5.236;2022-07-15T12:19:05;1.67;;;0.80;;
68214;SDS011;55036;52.138;5.236;2022-07-15T12:21:39;1.63;;;0.65;;
68214;SDS011;55036;52.138;5.236;2022-07-15T12:24:11;1.38;;;0.75;;
68214;SDS011;55036;52.138;5.236;2022-07-15T12:26:42;0.90;;;0.80;;
68214;SDS011;55036;52.138;5.236;2022-07-15T12:29:16;2.20;;;1.10;;
68214;SDS011;55036;52.138;5.236;2022-07-15T12:31:57;2.15;;;0.90;;
68214;SDS011;55036;52.138;5.236;2022-07-15T12:37:14;2.45;;;0.90;;
68214;SDS011;55036;52.138;5.236;2022-07-15T12:42:30;4.20;;;1.05;;
68214;SDS011;55036;52.138;5.236;2022-07-15T12:48:00;2.65;;;0.98;;
68214;SDS011;55036;52.138;5.236;2022-07-15T12:50:32;2.72;;;1.00;;
68214;SDS011;55036;52.138;5.236;2022-07-15T12:53:00;3.47;;;1.00;;
68214;SDS011;55036;52.138;5.236;2022-07-15T12:55:31;2.25;;;0.95;;
68214;SDS011;55036;52.138;5.236;2022-07-15T12:58:08;3.05;;;1.08;;
68214;SDS011;55036;52.138;5.236;2022-07-15T13:00:37;1.95;;;1.10;;
68214;SDS011;55036;52.138;5.236;2022-07-15T13:03:14;3.78;;;1.45;;
68214;SDS011;55036;52.138;5.236;2022-07-15T13:05:50;2.33;;;1.00;;
68214;SDS011;55036;52.138;5.236;2022-07-15T13:08:20;2.28;;;1.10;;
68214;SDS011;55036;52.138;5.236;2022-07-15T13:10:50;2.35;;;0.90;;
68214;SDS011;55036;52.138;5.236;2022-07-15T13:13:19;4.05;;;1.10;;
68214;SDS011;55036;52.138;5.236;2022-07-15T13:15:48;1.73;;;1.13;;
68214;SDS011;55036;52.138;5.236;2022-07-15T13:18:16;3.10;;;1.17;;
68214;SDS011;55036;52.138;5.236;2022-07-15T13:20:43;2.47;;;1.20;;
68214;SDS011;55036;52.138;5.236;2022-07-15T13:23:11;3.20;;;1.30;;
68214;SDS011;55036;52.138;5.236;2022-07-15T13:25:38;5.05;;;1.10;;
68214;SDS011;55036;52.138;5.236;2022-07-15T13:28:07;4.63;;;1.20;;
68214;SDS011;55036;52.138;5.236;2022-07-15T13:30:35;2.85;;;1.17;;
68214;SDS011;55036;52.138;5.236;2022-07-15T13:33:03;2.90;;;1.10;;
68214;SDS011;55036;52.138;5.236;2022-07-15T13:35:30;3.85;;;1.40;;
68214;SDS011;55036;52.138;5.236;2022-07-15T13:37:57;2.83;;;1.38;;
68214;SDS011;55036;52.138;5.236;2022-07-15T13:40:24;4.40;;;1.40;;
68214;SDS011;55036;52.138;5.236;2022-07-15T13:42:50;2.22;;;1.10;;
68214;SDS011;55036;52.138;5.236;2022-07-15T13:45:18;4.22;;;1.10;;
68214;SDS011;55036;52.138;5.236;2022-07-15T13:47:45;2.72;;;1.35;;
68214;SDS011;55036;52.138;5.236;2022-07-15T13:50:12;4.55;;;1.77;;
68214;SDS011;55036;52.138;5.236;2022-07-15T13:52:58;2.40;;;1.40;;
68214;SDS011;55036;52.138;5.236;2022-07-15T13:55:26;4.07;;;1.52;;
68214;SDS011;55036;52.138;5.236;2022-07-15T13:57:54;2.42;;;1.40;;
68214;SDS011;55036;52.138;5.236;2022-07-15T14:00:21;2.88;;;1.30;;
68214;SDS011;55036;52.138;5.236;2022-07-15T14:02:50;4.10;;;1.30;;
68214;SDS011;55036;52.138;5.236;2022-07-15T14:05:19;2.22;;;1.17;;
68214;SDS011;55036;52.138;5.236;2022-07-15T14:07:46;4.22;;;1.42;;
68214;SDS011;55036;52.138;5.236;2022-07-15T14:10:13;2.70;;;1.30;;
68214;SDS011;55036;52.138;5.236;2022-07-15T14:12:40;3.90;;;1.17;;
68214;SDS011;55036;52.138;5.236;2022-07-15T14:15:08;1.63;;;1.05;;
68214;SDS011;55036;52.138;5.236;2022-07-15T14:17:35;3.50;;;1.63;;
68214;SDS011;55036;52.138;5.236;2022-07-15T14:20:02;4.70;;;1.27;;
68214;SDS011;55036;52.138;5.236;2022-07-15T14:22:29;2.08;;;1.20;;
68214;SDS011;55036;52.138;5.236;2022-07-15T14:24:58;1.70;;;1.20;;
68214;SDS011;55036;52.138;5.236;2022-07-15T14:27:26;4.78;;;1.67;;
68214;SDS011;55036;52.138;5.236;2022-07-15T14:29:52;5.00;;;1.98;;
68214;SDS011;55036;52.138;5.236;2022-07-15T14:32:27;3.90;;;1.40;;
68214;SDS011;55036;52.138;5.236;2022-07-15T14:34:57;7.33;;;2.00;;
68214;SDS011;55036;52.138;5.236;2022-07-15T14:37:24;4.38;;;1.50;;
68214;SDS011;55036;52.138;5.236;2022-07-15T14:40:00;4.30;;;1.38;;
68214;SDS011;55036;52.138;5.236;2022-07-15T14:42:29;5.00;;;1.63;;
68214;SDS011;55036;52.138;5.236;2022-07-15T14:44:57;3.88;;;1.52;;
68214;SDS011;55036;52.138;5.236;2022-07-15T14:47:24;2.47;;;1.58;;
68214;SDS011;55036;52.138;5.236;2022-07-15T14:49:51;4.75;;;1.45;;
68214;SDS011;55036;52.138;5.236;2022-07-15T14:52:18;2.58;;;1.48;;
68214;SDS011;55036;52.138;5.236;2022-07-15T14:54:45;4.72;;;1.50;;
68214;SDS011;55036;52.138;5.236;2022-07-15T14:57:12;5.47;;;1.58;;
68214;SDS011;55036;52.138;5.236;2022-07-15T14:59:39;4.07;;;1.50;;
68214;SDS011;55036;52.138;5.236;2022-07-15T15:02:06;3.17;;;1.38;;
68214;SDS011;55036;52.138;5.236;2022-07-15T15:04:34;4.15;;;1.88;;
68214;SDS011;55036;52.138;5.236;2022-07-15T15:07:02;3.30;;;1.35;;
68214;SDS011;55036;52.138;5.236;2022-07-15T15:09:29;7.22;;;1.35;;
68214;SDS011;55036;52.138;5.236;2022-07-15T15:11:56;5.32;;;1.63;;
68214;SDS011;55036;52.138;5.236;2022-07-15T15:14:27;3.00;;;1.40;;
68214;SDS011;55036;52.138;5.236;2022-07-15T15:16:54;5.15;;;1.52;;
68214;SDS011;55036;52.138;5.236;2022-07-15T15:19:31;4.68;;;1.42;;
68214;SDS011;55036;52.138;5.236;2022-07-15T15:21:58;3.22;;;1.45;;
68214;SDS011;55036;52.138;5.236;2022-07-15T15:24:25;3.72;;;1.52;;
68214;SDS011;55036;52.138;5.236;2022-07-15T15:26:52;5.32;;;1.73;;
68214;SDS011;55036;52.138;5.236;2022-07-15T15:29:19;4.72;;;1.52;;
68214;SDS011;55036;52.138;5.236;2022-07-15T15:31:46;5.18;;;1.40;;
68214;SDS011;55036;52.138;5.236;2022-07-15T15:34:15;4.57;;;1.45;;
68214;SDS011;55036;52.138;5.236;2022-07-15T15:36:43;4.75;;;1.60;;
68214;SDS011;55036;52.138;5.236;2022-07-15T15:39:11;5.13;;;1.52;;
68214;SDS011;55036;52.138;5.236;2022-07-15T15:41:38;8.07;;;1.45;;
68214;SDS011;55036;52.138;5.236;2022-07-15T15:44:05;2.75;;;1.55;;
68214;SDS011;55036;52.138;5.236;2022-07-15T15:46:32;4.53;;;1.40;;